createdAt,value
2023-02-14T00:01:20.571Z,22.83
2023-02-14T00:03:50.192Z,24.45
2023-02-14T00:06:18.415Z,25.30
2023-02-14T00:08:46.024Z,22.55
2023-02-14T00:11:14.406Z,22.70
2023-02-14T00:14:02.054Z,23.33
2023-02-14T00:16:28.774Z,21.27
2023-02-14T00:19:06.932Z,18.63
2023-02-14T00:21:36.577Z,19.08
2023-02-14T00:24:04.310Z,23.67
2023-02-14T00:26:32.192Z,25.77
2023-02-14T00:28:59.847Z,32.42
2023-02-14T00:31:27.614Z,23.90
2023-02-14T00:33:56.790Z,24.50
2023-02-14T00:36:24.463Z,20.42
2023-02-14T00:38:52.064Z,21.02
2023-02-14T00:41:20.178Z,23.15
2023-02-14T00:43:48.254Z,19.83
2023-02-14T00:46:16.391Z,18.52
2023-02-14T00:48:44.138Z,20.80
2023-02-14T00:51:13.650Z,18.52
2023-02-14T00:53:41.553Z,19.02
2023-02-14T00:56:09.323Z,19.50
2023-02-14T00:58:36.929Z,20.48
2023-02-14T01:01:04.916Z,17.27
2023-02-14T01:03:32.871Z,18.63
2023-02-14T01:06:00.599Z,21.27
2023-02-14T01:08:29.568Z,19.58
2023-02-14T01:10:57.473Z,18.75
2023-02-14T01:13:25.314Z,21.85
2023-02-14T01:15:53.287Z,18.70
2023-02-14T01:18:20.974Z,20.13
2023-02-14T01:20:48.551Z,18.13
2023-02-14T01:23:16.160Z,20.25
2023-02-14T01:25:45.098Z,20.25
2023-02-14T01:28:12.707Z,19.65
2023-02-14T01:30:40.343Z,18.95
2023-02-14T01:33:07.978Z,18.20
2023-02-14T01:35:38.563Z,17.50
2023-02-14T01:38:06.366Z,17.33
2023-02-14T01:40:33.973Z,16.65
2023-02-14T01:43:02.933Z,16.48
2023-02-14T01:45:32.517Z,16.65
2023-02-14T01:48:00.225Z,17.38
2023-02-14T01:50:31.348Z,18.10
2023-02-14T01:53:00.629Z,17.70
2023-02-14T01:55:30.250Z,16.00
2023-02-14T01:58:00.225Z,15.93
2023-02-14T02:00:46.508Z,15.30
2023-02-14T02:03:15.145Z,16.92
2023-02-14T02:05:45.675Z,15.50
2023-02-14T02:08:13.465Z,16.38
2023-02-14T02:10:41.108Z,15.55
2023-02-14T02:13:09.924Z,17.55
2023-02-14T02:15:43.878Z,18.63
2023-02-14T02:18:12.977Z,17.35
2023-02-14T02:20:59.901Z,18.27
2023-02-14T02:24:01.168Z,17.35
2023-02-14T02:27:03.957Z,20.05
2023-02-14T02:29:51.516Z,17.55
2023-02-14T02:32:45.067Z,18.50
2023-02-14T02:35:30.906Z,23.27
2023-02-14T02:38:08.776Z,18.10
2023-02-14T02:40:46.437Z,18.33
2023-02-14T02:43:21.550Z,17.80
2023-02-14T02:46:10.221Z,17.02
2023-02-14T02:48:42.002Z,17.67
2023-02-14T02:51:32.037Z,20.80
2023-02-14T02:54:04.750Z,27.30
2023-02-14T02:56:46.144Z,19.73
2023-02-14T02:59:18.282Z,19.27
2023-02-14T03:01:49.105Z,17.15
2023-02-14T03:04:35.272Z,19.05
2023-02-14T03:07:25.857Z,18.15
2023-02-14T03:09:57.430Z,18.10
2023-02-14T03:12:47.563Z,17.60
2023-02-14T03:15:22.537Z,16.23
2023-02-14T03:17:56.729Z,15.82
2023-02-14T03:20:24.918Z,18.17
2023-02-14T03:22:58.453Z,17.77
2023-02-14T03:25:34.251Z,16.92
2023-02-14T03:28:17.878Z,16.63
2023-02-14T03:30:49.659Z,17.55
2023-02-14T03:33:20.046Z,17.63
2023-02-14T03:35:55.008Z,17.90
2023-02-14T03:38:26.655Z,18.77
2023-02-14T03:40:58.285Z,20.52
2023-02-14T03:43:28.442Z,17.98
2023-02-14T03:45:59.442Z,18.63
2023-02-14T03:48:28.525Z,20.90
2023-02-14T03:50:56.745Z,18.17
2023-02-14T03:53:28.445Z,17.52
2023-02-14T03:56:00.977Z,20.85
2023-02-14T03:58:32.638Z,17.25
2023-02-14T04:01:02.945Z,17.33
2023-02-14T04:03:31.649Z,17.65
2023-02-14T04:05:59.702Z,17.67
2023-02-14T04:08:30.141Z,15.63
2023-02-14T04:11:00.553Z,19.33
2023-02-14T04:13:28.842Z,16.80
2023-02-14T04:15:56.493Z,17.67
2023-02-14T04:18:41.766Z,18.52
2023-02-14T04:21:09.426Z,18.58
2023-02-14T04:23:38.380Z,17.55
2023-02-14T04:26:06.224Z,17.35
2023-02-14T04:28:34.076Z,17.38
2023-02-14T04:31:02.920Z,17.58
2023-02-14T04:33:31.013Z,16.98
2023-02-14T04:35:58.586Z,16.63
2023-02-14T04:38:26.197Z,16.17
2023-02-14T04:40:55.208Z,16.77
2023-02-14T04:43:22.804Z,16.23
2023-02-14T04:45:50.358Z,15.27
2023-02-14T04:48:17.944Z,16.45
2023-02-14T04:50:45.534Z,15.93
2023-02-14T04:53:13.126Z,17.33
2023-02-14T04:55:40.690Z,15.65
2023-02-14T04:58:09.609Z,15.63
2023-02-14T05:00:37.362Z,16.60
2023-02-14T05:03:05.617Z,16.15
2023-02-14T05:05:33.207Z,16.02
2023-02-14T05:08:00.807Z,16.55
2023-02-14T05:10:29.165Z,14.77
2023-02-14T05:12:56.791Z,15.65
2023-02-14T05:15:25.714Z,16.02
2023-02-14T05:17:53.293Z,16.83
2023-02-14T05:20:20.959Z,15.40
2023-02-14T05:22:48.577Z,15.57
2023-02-14T05:25:16.208Z,14.07
2023-02-14T05:27:43.811Z,15.57
2023-02-14T05:30:13.038Z,14.60
2023-02-14T05:32:41.937Z,15.82
2023-02-14T05:35:09.546Z,16.05
2023-02-14T05:37:37.171Z,15.38
2023-02-14T05:40:05.401Z,14.30
2023-02-14T05:42:32.995Z,15.68
2023-02-14T05:45:00.592Z,15.48
2023-02-14T05:47:28.213Z,15.38
2023-02-14T05:49:57.157Z,16.50
2023-02-14T05:52:24.925Z,16.15
2023-02-14T05:54:52.589Z,16.13
2023-02-14T05:57:20.266Z,17.98
2023-02-14T05:59:47.895Z,16.30
2023-02-14T06:02:15.949Z,15.68
2023-02-14T06:04:43.774Z,16.60
2023-02-14T06:07:12.765Z,14.98
2023-02-14T06:09:40.410Z,16.20
2023-02-14T06:12:08.650Z,13.27
2023-02-14T06:14:36.284Z,14.88
2023-02-14T06:17:03.934Z,15.65
2023-02-14T06:19:31.590Z,15.65
2023-02-14T06:21:59.203Z,17.33
2023-02-14T06:24:28.361Z,16.42
2023-02-14T06:26:56.011Z,16.80
2023-02-14T06:29:23.873Z,18.75
2023-02-14T06:31:51.549Z,16.23
2023-02-14T06:34:19.349Z,16.13
2023-02-14T06:36:46.939Z,16.33
2023-02-14T06:39:14.508Z,16.48
2023-02-14T06:41:43.423Z,18.63
2023-02-14T06:44:11.008Z,16.42
2023-02-14T06:46:38.614Z,15.77
2023-02-14T06:49:06.164Z,15.73
2023-02-14T06:51:33.787Z,26.40
2023-02-14T06:54:01.357Z,17.75
2023-02-14T06:56:29.095Z,16.63
2023-02-14T06:58:57.995Z,16.15
2023-02-14T07:01:25.652Z,15.05
2023-02-14T07:03:53.346Z,23.27
2023-02-14T07:06:21.060Z,18.00
2023-02-14T07:08:48.614Z,16.98
2023-02-14T07:11:16.688Z,21.70
2023-02-14T07:13:44.762Z,17.33
2023-02-14T07:16:13.716Z,16.48
2023-02-14T07:18:41.367Z,16.77
2023-02-14T07:21:08.960Z,16.33
2023-02-14T07:23:36.594Z,15.68
2023-02-14T07:26:04.242Z,15.50
2023-02-14T07:28:31.813Z,15.63
2023-02-14T07:31:01.076Z,16.20
2023-02-14T07:33:30.431Z,13.95
2023-02-14T07:35:57.992Z,15.10
2023-02-14T07:38:25.603Z,17.13
2023-02-14T07:40:54.623Z,17.70
2023-02-14T07:43:22.223Z,15.68
2023-02-14T07:45:49.873Z,17.70
2023-02-14T07:48:17.496Z,16.35
2023-02-14T07:50:46.440Z,15.45
2023-02-14T07:53:14.068Z,15.85
2023-02-14T07:55:41.693Z,15.70
2023-02-14T07:58:09.336Z,15.70
2023-02-14T08:00:36.933Z,16.10
2023-02-14T08:03:04.662Z,15.80
2023-02-14T08:05:32.246Z,16.38
2023-02-14T08:08:01.179Z,14.13
2023-02-14T08:10:28.888Z,16.90
2023-02-14T08:13:03.532Z,15.50
2023-02-14T08:15:52.974Z,17.23
2023-02-14T08:18:21.468Z,15.55
2023-02-14T08:20:49.785Z,16.33
2023-02-14T08:23:19.847Z,19.55
2023-02-14T08:25:47.766Z,21.23
2023-02-14T08:28:15.371Z,17.08
2023-02-14T08:30:43.412Z,14.80
2023-02-14T08:33:11.219Z,16.33
2023-02-14T08:35:39.026Z,14.52
2023-02-14T08:38:07.026Z,14.00
2023-02-14T08:40:36.993Z,15.07
2023-02-14T08:43:05.101Z,15.60
2023-02-14T08:45:32.833Z,15.70
2023-02-14T08:48:04.529Z,16.38
2023-02-14T08:50:32.440Z,14.95
2023-02-14T08:53:00.272Z,18.38
2023-02-14T08:55:28.648Z,16.20
2023-02-14T08:57:58.311Z,18.75
2023-02-14T09:00:26.234Z,16.52
2023-02-14T09:02:54.519Z,15.55
2023-02-14T09:05:23.304Z,14.68
2023-02-14T09:07:51.030Z,16.48
2023-02-14T09:10:19.469Z,14.73
2023-02-14T09:12:47.122Z,14.52
2023-02-14T09:15:16.057Z,16.15
2023-02-14T09:17:43.785Z,17.50
2023-02-14T09:20:13.661Z,17.95
2023-02-14T09:22:41.425Z,17.27
2023-02-14T09:25:09.256Z,16.70
2023-02-14T09:27:37.157Z,20.33
2023-02-14T09:30:05.853Z,17.60
2023-02-14T09:32:34.859Z,17.85
2023-02-14T09:35:02.528Z,17.67
2023-02-14T09:37:29.126Z,18.70
2023-02-14T09:39:56.746Z,18.38
2023-02-14T09:42:44.707Z,19.48
2023-02-14T09:45:13.544Z,18.20
2023-02-14T09:47:46.673Z,18.67
2023-02-14T09:50:21.070Z,18.70
2023-02-14T09:52:53.773Z,18.38
2023-02-14T09:55:21.385Z,19.58
2023-02-14T09:58:08.177Z,17.80
2023-02-14T10:00:38.988Z,17.88
2023-02-14T10:03:41.967Z,16.40
2023-02-14T10:06:16.575Z,15.95
2023-02-14T10:08:55.578Z,16.67
2023-02-14T10:11:24.732Z,16.80
2023-02-14T10:13:54.520Z,15.90
2023-02-14T10:16:27.141Z,16.50
2023-02-14T10:19:01.418Z,17.10
2023-02-14T10:21:32.884Z,18.65
2023-02-14T10:24:04.211Z,14.30
2023-02-14T10:26:36.560Z,18.25
2023-02-14T10:29:04.702Z,16.90
2023-02-14T10:31:37.301Z,16.95
2023-02-14T10:34:10.529Z,19.17
2023-02-14T10:36:47.920Z,16.92
2023-02-14T10:39:29.960Z,16.88
2023-02-14T10:41:59.664Z,17.08
2023-02-14T10:44:39.120Z,16.23
2023-02-14T10:47:11.873Z,17.42
2023-02-14T10:49:46.455Z,16.55
2023-02-14T10:52:19.927Z,16.05
2023-02-14T10:54:53.120Z,16.02
2023-02-14T10:57:24.884Z,15.60
2023-02-14T10:59:55.402Z,15.68
2023-02-14T11:02:26.004Z,16.25
2023-02-14T11:04:55.266Z,15.60
2023-02-14T11:07:23.824Z,16.55
2023-02-14T11:09:51.487Z,16.13
2023-02-14T11:12:37.406Z,15.55
2023-02-14T11:15:19.749Z,16.48
2023-02-14T11:20:26.329Z,16.23
2023-02-14T11:22:53.879Z,16.98
2023-02-14T11:25:22.956Z,17.02
2023-02-14T11:27:52.268Z,17.70
2023-02-14T11:30:21.715Z,17.67
2023-02-14T11:32:54.961Z,17.90
2023-02-14T11:35:27.086Z,17.92
2023-02-14T11:40:29.167Z,17.05
2023-02-14T11:43:13.320Z,16.65
2023-02-14T11:45:43.894Z,16.80
2023-02-14T11:48:24.787Z,17.83
2023-02-14T11:51:03.464Z,17.02
2023-02-14T11:56:01.955Z,17.65
2023-02-14T11:58:33.474Z,17.23
2023-02-14T12:01:02.033Z,18.65
2023-02-14T12:03:32.370Z,17.42
2023-02-14T12:06:02.892Z,18.02
2023-02-14T12:08:32.598Z,17.55
2023-02-14T12:11:05.217Z,18.33
2023-02-14T12:13:33.322Z,17.48
2023-02-14T12:16:01.096Z,18.48
2023-02-14T12:18:43.594Z,17.55
2023-02-14T12:21:28.646Z,19.15
2023-02-14T12:24:01.671Z,17.55
2023-02-14T12:26:32.081Z,17.45
2023-02-14T12:29:05.335Z,18.02
2023-02-14T12:31:33.055Z,18.08
2023-02-14T12:34:01.195Z,17.85
2023-02-14T12:36:52.748Z,18.38
2023-02-14T12:39:26.848Z,13.75
2023-02-14T12:42:02.769Z,17.50
2023-02-14T12:44:38.104Z,18.50
2023-02-14T12:47:17.702Z,18.02
2023-02-14T12:49:57.057Z,17.10
2023-02-14T12:52:39.014Z,17.83
2023-02-14T12:55:24.607Z,17.63
2023-02-14T12:57:55.812Z,19.25
2023-02-14T13:00:31.689Z,18.80
2023-02-14T13:03:13.263Z,19.40
2023-02-14T13:05:48.244Z,19.05
2023-02-14T13:08:27.978Z,18.10
2023-02-14T13:11:00.397Z,19.17
2023-02-14T13:13:36.079Z,18.23
2023-02-14T13:16:11.413Z,18.90
2023-02-14T13:18:45.115Z,18.92
2023-02-14T13:21:15.841Z,18.08
2023-02-14T13:23:46.506Z,18.67
2023-02-14T13:26:17.345Z,18.27
2023-02-14T13:28:50.750Z,19.02
2023-02-14T13:31:19.593Z,17.13
2023-02-14T13:33:50.919Z,17.83
2023-02-14T13:36:19.117Z,18.53
2023-02-14T13:38:50.291Z,16.70
2023-02-14T13:41:18.579Z,18.00
2023-02-14T13:43:47.843Z,17.98
2023-02-14T13:46:16.812Z,18.33
2023-02-14T13:48:48.002Z,16.95
2023-02-14T13:51:15.680Z,17.42
2023-02-14T13:53:44.958Z,16.95
2023-02-14T13:56:34.450Z,18.80
2023-02-14T13:59:05.435Z,17.17
2023-02-14T14:01:35.872Z,17.63
2023-02-14T14:04:05.182Z,17.98
2023-02-14T14:07:14.550Z,17.42
2023-02-14T14:10:02.773Z,17.73
2023-02-14T14:12:42.541Z,17.75
2023-02-14T14:15:18.666Z,17.70
2023-02-14T14:18:05.655Z,18.60
2023-02-14T14:20:43.134Z,16.42
2023-02-14T14:23:35.450Z,17.52
2023-02-14T14:26:03.335Z,18.17
2023-02-14T14:28:33.627Z,17.85
2023-02-14T14:31:01.331Z,16.80
2023-02-14T14:33:31.070Z,19.33
2023-02-14T14:36:00.570Z,17.80
2023-02-14T14:38:29.026Z,16.67
2023-02-14T14:40:57.179Z,17.08
2023-02-14T14:43:30.665Z,16.45
2023-02-14T14:46:02.156Z,16.48
2023-02-14T14:48:32.009Z,17.75
2023-02-14T14:51:00.665Z,18.20
2023-02-14T14:53:30.479Z,17.92
2023-02-14T14:55:58.576Z,18.17
2023-02-14T14:58:38.181Z,19.35
2023-02-14T15:01:08.824Z,20.20
2023-02-14T15:03:36.450Z,19.73
2023-02-14T15:06:07.684Z,19.98
2023-02-14T15:08:35.733Z,20.17
2023-02-14T15:11:07.343Z,20.02
2023-02-14T15:13:50.790Z,20.27
2023-02-14T15:16:22.161Z,20.38
2023-02-14T15:18:50.372Z,21.60
2023-02-14T15:21:19.371Z,19.65
2023-02-14T15:23:47.339Z,20.15
2023-02-14T15:26:19.741Z,22.15
2023-02-14T15:28:55.527Z,21.90
2023-02-14T15:31:27.111Z,22.42
2023-02-14T15:33:54.832Z,23.67
2023-02-14T15:36:27.252Z,22.45
2023-02-14T15:38:56.700Z,24.27
2023-02-14T15:41:26.769Z,23.25
2023-02-14T15:43:55.970Z,22.00
2023-02-14T15:46:33.075Z,20.50
2023-02-14T15:49:01.486Z,21.75
2023-02-14T15:51:31.039Z,20.13
2023-02-14T15:54:00.759Z,21.05
2023-02-14T15:56:30.157Z,21.65
2023-02-14T15:59:01.541Z,21.27
2023-02-14T16:01:31.205Z,21.25
2023-02-14T16:04:00.890Z,23.40
2023-02-14T16:06:34.871Z,21.27
2023-02-14T16:09:04.411Z,22.38
2023-02-14T16:11:35.426Z,23.15
2023-02-14T16:14:20.937Z,22.55
2023-02-14T16:16:59.950Z,24.85
2023-02-14T16:19:38.566Z,24.40
2023-02-14T16:22:07.877Z,29.27
2023-02-14T16:24:35.997Z,27.92
2023-02-14T16:27:07.041Z,28.08
2023-02-14T16:29:36.236Z,26.23
2023-02-14T16:32:17.454Z,25.35
2023-02-14T16:34:47.150Z,26.57
2023-02-14T16:37:21.145Z,27.23
2023-02-14T16:39:49.145Z,27.05
2023-02-14T16:42:18.168Z,25.30
2023-02-14T16:44:45.870Z,26.38
2023-02-14T16:47:17.220Z,24.45
2023-02-14T16:49:44.880Z,25.55
2023-02-14T16:52:14.897Z,24.98
2023-02-14T16:54:42.609Z,25.42
2023-02-14T16:57:14.724Z,23.70
2023-02-14T17:02:09.816Z,25.30
2023-02-14T17:04:38.812Z,25.27
2023-02-14T17:07:07.466Z,27.02
2023-02-14T17:09:37.993Z,29.58
2023-02-14T17:12:11.439Z,28.02
2023-02-14T17:14:40.414Z,26.65
2023-02-14T17:17:08.079Z,25.52
2023-02-14T17:19:35.735Z,25.25
2023-02-14T17:22:05.188Z,24.45
2023-02-14T17:24:32.888Z,24.35
2023-02-14T17:27:00.616Z,24.70
2023-02-14T17:29:29.283Z,26.17
2023-02-14T17:31:56.954Z,24.55
2023-02-14T17:34:24.894Z,25.15
2023-02-14T17:36:52.511Z,24.55
2023-02-14T17:39:21.551Z,25.52
2023-02-14T17:41:49.156Z,27.17
2023-02-14T17:44:16.846Z,26.73
2023-02-14T17:46:44.480Z,26.95
2023-02-14T17:49:12.124Z,25.33
2023-02-14T17:51:39.756Z,25.25
2023-02-14T17:54:07.587Z,27.80
2023-02-14T17:56:36.655Z,30.90
2023-02-14T17:59:04.307Z,29.98
2023-02-14T18:01:34.334Z,28.60
2023-02-14T18:04:02.168Z,28.13
2023-02-14T18:06:29.815Z,28.15
2023-02-14T18:08:57.753Z,28.35
2023-02-14T18:11:27.294Z,28.35
2023-02-14T18:13:56.745Z,31.85
2023-02-14T18:16:25.071Z,32.90
2023-02-14T18:18:53.623Z,32.45
2023-02-14T18:21:21.838Z,26.83
2023-02-14T18:23:49.998Z,32.22
2023-02-14T18:26:18.998Z,32.33
2023-02-14T18:28:46.649Z,27.60
2023-02-14T18:31:18.019Z,31.42
2023-02-14T18:33:46.131Z,28.63
2023-02-14T18:36:20.228Z,26.85
2023-02-14T18:38:49.330Z,26.50
2023-02-14T18:41:18.702Z,27.35
2023-02-14T18:43:46.497Z,26.48
2023-02-14T18:46:16.739Z,26.55
2023-02-14T18:48:45.074Z,26.55
2023-02-14T18:51:15.424Z,26.05
2023-02-14T18:53:44.137Z,24.80
2023-02-14T18:56:13.103Z,29.05
2023-02-14T18:58:42.015Z,27.27
2023-02-14T19:01:10.440Z,27.08
2023-02-14T19:03:40.284Z,30.05
2023-02-14T19:06:09.044Z,26.10
2023-02-14T19:08:38.259Z,26.67
2023-02-14T19:11:09.011Z,26.42
2023-02-14T19:13:36.703Z,25.40
2023-02-14T19:16:11.055Z,26.52
2023-02-14T19:18:40.353Z,24.63
2023-02-14T19:21:14.642Z,30.35
2023-02-14T19:23:42.408Z,34.53
2023-02-14T19:26:11.700Z,29.60
2023-02-14T19:28:39.295Z,30.98
2023-02-14T19:31:07.253Z,27.00
2023-02-14T19:33:38.456Z,29.77
2023-02-14T19:36:09.333Z,29.23
2023-02-14T19:38:37.067Z,29.38
2023-02-14T19:41:04.760Z,27.55
2023-02-14T19:43:32.502Z,27.40
2023-02-14T19:46:00.179Z,27.38
2023-02-14T19:48:27.805Z,27.58
2023-02-14T19:50:55.549Z,26.85
2023-02-14T19:53:24.492Z,24.88
2023-02-14T19:55:52.136Z,24.52
2023-02-14T19:58:19.982Z,24.73
2023-02-14T20:00:54.535Z,26.92
2023-02-14T20:03:22.555Z,26.02
2023-02-14T20:05:50.802Z,24.38
2023-02-14T20:08:18.737Z,26.85
2023-02-14T20:10:47.720Z,26.80
2023-02-14T20:13:15.632Z,27.13
2023-02-14T20:15:45.219Z,24.02
2023-02-14T20:18:12.802Z,23.45
2023-02-14T20:21:05.011Z,23.02
2023-02-14T20:23:33.360Z,23.27
2023-02-14T20:26:03.453Z,22.80
2023-02-14T20:28:31.124Z,23.38
2023-02-14T20:30:58.830Z,23.17
2023-02-14T20:33:26.555Z,22.38
2023-02-14T20:35:54.138Z,22.75
2023-02-14T20:38:21.750Z,22.10
2023-02-14T20:40:49.374Z,20.92
2023-02-14T20:43:18.453Z,22.25
2023-02-14T20:45:46.065Z,21.13
2023-02-14T20:48:13.679Z,21.08
2023-02-14T20:50:41.284Z,18.77
2023-02-14T20:53:08.899Z,21.10
2023-02-14T20:55:41.673Z,20.33
2023-02-14T20:58:09.291Z,21.17
2023-02-14T21:00:38.551Z,20.98
2023-02-14T21:03:06.194Z,19.63
2023-02-14T21:05:33.832Z,19.52
2023-02-14T21:08:01.457Z,21.05
2023-02-14T21:10:29.077Z,22.05
2023-02-14T21:12:58.401Z,20.95
2023-02-14T21:15:26.170Z,20.88
2023-02-14T21:17:55.177Z,20.98
2023-02-14T21:20:25.200Z,21.67
2023-02-14T21:22:52.896Z,22.95
2023-02-14T21:25:23.424Z,21.63
2023-02-14T21:27:52.438Z,25.35
2023-02-14T21:30:20.251Z,25.25
2023-02-14T21:32:47.811Z,24.08
2023-02-14T21:35:16.842Z,22.98
2023-02-14T21:37:53.999Z,23.33
2023-02-14T21:40:23.677Z,20.70
2023-02-14T21:42:56.551Z,21.38
2023-02-14T21:45:41.845Z,19.75
2023-02-14T21:48:37.781Z,20.17
2023-02-14T21:51:07.349Z,18.52
2023-02-14T21:53:35.320Z,18.08
2023-02-14T21:56:07.231Z,16.85
2023-02-14T21:58:34.816Z,18.02
2023-02-14T22:01:02.587Z,18.85
2023-02-14T22:03:30.398Z,19.15
2023-02-14T22:06:02.301Z,17.70
2023-02-14T22:08:31.744Z,19.38
2023-02-14T22:11:00.333Z,18.83
2023-02-14T22:13:28.253Z,17.80
2023-02-14T22:15:55.847Z,18.13
2023-02-14T22:18:23.468Z,17.67
2023-02-14T22:20:54.966Z,17.60
2023-02-14T22:23:24.529Z,19.73
2023-02-14T22:25:53.506Z,20.48
2023-02-14T22:28:21.143Z,18.90
2023-02-14T22:30:48.752Z,19.02
2023-02-14T22:33:16.375Z,20.02
2023-02-14T22:35:43.956Z,20.38
2023-02-14T22:38:12.697Z,18.58
2023-02-14T22:40:42.201Z,18.70
2023-02-14T22:43:11.114Z,18.98
2023-02-14T22:45:38.725Z,18.90
2023-02-14T22:48:06.507Z,18.77
2023-02-14T22:50:35.519Z,17.20
2023-02-14T22:53:03.350Z,18.10
2023-02-14T22:55:31.428Z,17.42
2023-02-14T22:57:59.031Z,15.77
2023-02-14T23:00:28.096Z,16.70
2023-02-14T23:02:55.763Z,18.15
2023-02-14T23:05:23.438Z,17.83
2023-02-14T23:07:51.062Z,18.75
2023-02-14T23:10:18.868Z,18.38
2023-02-14T23:13:53.359Z,18.58
2023-02-14T23:16:39.729Z,17.50
2023-02-14T23:19:27.556Z,17.67
2023-02-14T23:21:58.215Z,15.93
2023-02-14T23:24:25.853Z,16.83
2023-02-14T23:26:55.030Z,19.17
2023-02-14T23:29:22.836Z,16.52
2023-02-14T23:31:51.889Z,17.65
2023-02-14T23:34:20.035Z,19.00
2023-02-14T23:36:47.750Z,17.67
2023-02-14T23:39:15.339Z,17.48
2023-02-14T23:41:49.159Z,18.90
2023-02-14T23:44:18.419Z,20.27
2023-02-14T23:46:46.300Z,19.42
2023-02-14T23:49:15.412Z,18.05
2023-02-14T23:51:44.323Z,16.58
2023-02-14T23:54:12.463Z,16.38
2023-02-14T23:56:40.809Z,17.20
2023-02-14T23:59:08.922Z,17.27
